Terminal Aerodrome Forecast
Issued by NWS Upton, NY

Home | Current Version | Previous Version | Text Only | Print | Product List | Glossary On
Versions: 1 2 3 4 5 6 7 8 9 10 11 12 13 14 15 16 17 18 19 20 21 22 23 24 25 26 27
000
FTUS41 KOKX 030222 AAA
TAFBDR
TAF AMD
KBDR 030222Z 0302/0324 VRB05KT 6SM BR SCT015 BKN050
     FM030600 VRB05KT 3SM RA BR SCT007 OVC015
      TEMPO 0306/0309 BKN007
     FM030900 06008KT 2SM RA BR OVC005
     FM031400 05008KT 4SM -SHRA BR OVC005
     FM031700 03008KT 3SM BR OVC008
     FM032100 12008KT 6SM BR SCT008 BKN015=

USA.gov is the U.S. government's official web portal to all federal, state and local government web resources and services.